createdAt,value
2023-03-26T00:01:41.011Z,101051.81
2023-03-26T00:04:08.696Z,101047.72
2023-03-26T00:06:39.950Z,101046.22
2023-03-26T00:09:09.970Z,101048.38
2023-03-26T00:11:37.719Z,101036.53
2023-03-26T00:14:05.911Z,101034.53
2023-03-26T00:16:33.592Z,101037.50
2023-03-26T00:19:02.008Z,101034.53
2023-03-26T00:21:30.787Z,101037.81
2023-03-26T00:24:01.308Z,101031.88
2023-03-26T00:26:31.373Z,101026.63
2023-03-26T00:29:00.555Z,101028.94
2023-03-26T00:31:28.160Z,101024.03
2023-03-26T00:33:57.025Z,101024.34
2023-03-26T00:36:27.011Z,101018.75
2023-03-26T00:38:55.623Z,101018.91
2023-03-26T00:41:31.273Z,101018.59
2023-03-26T00:44:00.690Z,101013.47
2023-03-26T00:46:30.873Z,101019.72
2023-03-26T00:49:02.007Z,101019.72
2023-03-26T00:51:29.534Z,101017.09
2023-03-26T00:53:58.359Z,101024.84
2023-03-26T00:56:26.596Z,101020.91
2023-03-26T00:58:53.879Z,101021.06
2023-03-26T01:01:29.363Z,101007.88
2023-03-26T01:04:08.059Z,101012.50
2023-03-26T01:06:39.259Z,101012.16
2023-03-26T01:09:19.154Z,101010.19
2023-03-26T01:11:49.075Z,101010.50
2023-03-26T01:14:27.126Z,101011.16
2023-03-26T01:16:57.311Z,101017.09
2023-03-26T01:20:05.901Z,101024.69
2023-03-26T01:22:37.931Z,101019.56
2023-03-26T01:25:05.762Z,101019.06
2023-03-26T01:27:51.152Z,101012.81
2023-03-26T01:30:24.052Z,101018.09
2023-03-26T01:33:14.516Z,101002.28
2023-03-26T01:35:58.499Z,101009.03
2023-03-26T01:38:48.417Z,101015.13
2023-03-26T01:41:42.783Z,101013.78
2023-03-26T01:44:28.825Z,101004.91
2023-03-26T01:46:58.470Z,101015.44
2023-03-26T01:49:28.499Z,101009.84
2023-03-26T01:51:58.218Z,101002.28
2023-03-26T01:54:28.900Z,101007.38
2023-03-26T01:57:06.862Z,101002.44
2023-03-26T02:00:04.896Z,101006.88
2023-03-26T02:03:05.287Z,101010.34
2023-03-26T02:05:35.482Z,101010.84
2023-03-26T02:08:23.590Z,101012.00
2023-03-26T02:11:00.214Z,101009.47
2023-03-26T02:13:28.191Z,101008.13
2023-03-26T02:16:01.697Z,101010.75
2023-03-26T02:18:39.380Z,101008.81
2023-03-26T02:21:11.100Z,101009.13
2023-03-26T02:23:47.220Z,101008.44
2023-03-26T02:26:18.110Z,101006.16
2023-03-26T02:29:13.702Z,101006.16
2023-03-26T02:31:43.910Z,101000.91
2023-03-26T02:34:11.557Z,101008.78
2023-03-26T02:36:43.290Z,101006.31
2023-03-26T02:39:11.595Z,101002.84
2023-03-26T02:41:39.422Z,101011.22
2023-03-26T02:44:09.927Z,101005.44
2023-03-26T02:46:55.954Z,101007.72
2023-03-26T02:49:42.077Z,101003.28
2023-03-26T02:52:11.283Z,101004.78
2023-03-26T02:54:38.905Z,101004.56
2023-03-26T02:57:18.519Z,101000.94
2023-03-26T02:59:50.645Z,100998.75
2023-03-26T03:02:39.021Z,101000.53
2023-03-26T03:05:31.797Z,101001.72
2023-03-26T03:08:23.175Z,101005.38
2023-03-26T03:11:25.074Z,101007.34
2023-03-26T03:13:53.916Z,101000.75
2023-03-26T03:16:28.023Z,100986.94
2023-03-26T03:18:58.143Z,100985.16
2023-03-26T03:21:46.397Z,100982.63
2023-03-26T03:24:14.211Z,100985.78
2023-03-26T03:26:46.548Z,100969.78
2023-03-26T03:29:24.027Z,100969.53
2023-03-26T03:31:51.699Z,100965.09
2023-03-26T03:34:38.824Z,100967.88
2023-03-26T03:37:07.119Z,100963.94
2023-03-26T03:39:49.911Z,100965.44
2023-03-26T03:42:20.571Z,100952.78
2023-03-26T03:44:50.280Z,100946.84
2023-03-26T03:47:50.060Z,100949.16
2023-03-26T03:50:23.861Z,100956.75
2023-03-26T03:53:06.724Z,100969.75
2023-03-26T03:55:38.526Z,100973.41
2023-03-26T03:58:06.387Z,100958.94
2023-03-26T04:00:33.835Z,100961.72
2023-03-26T04:03:33.380Z,100954.13
2023-03-26T04:06:11.350Z,100949.97
2023-03-26T04:08:39.780Z,100958.00
2023-03-26T04:11:08.419Z,100959.97
2023-03-26T04:13:59.658Z,100952.97
2023-03-26T04:16:39.585Z,100954.28
2023-03-26T04:19:07.060Z,100959.34
2023-03-26T04:21:38.019Z,100953.72
2023-03-26T04:24:07.507Z,100951.41
2023-03-26T04:27:15.207Z,100953.75
2023-03-26T04:29:45.975Z,100963.44
2023-03-26T04:32:26.867Z,100951.13
2023-03-26T04:34:56.547Z,100949.91
2023-03-26T04:37:40.974Z,100944.66
2023-03-26T04:40:17.925Z,100940.88
2023-03-26T04:43:12.747Z,100955.41
2023-03-26T04:46:03.722Z,100941.09
2023-03-26T04:48:36.038Z,100948.78
2023-03-26T04:51:03.599Z,100943.22
2023-03-26T04:53:30.926Z,100938.84
2023-03-26T04:56:58.314Z,100945.56
2023-03-26T04:59:30.711Z,100944.50
2023-03-26T05:02:00.456Z,100949.47
2023-03-26T05:04:32.164Z,100937.00
2023-03-26T05:06:59.973Z,100938.28
2023-03-26T05:09:36.019Z,100939.09
2023-03-26T05:12:17.579Z,100944.63
2023-03-26T05:14:59.727Z,100943.38
2023-03-26T05:17:46.765Z,100928.22
2023-03-26T05:20:27.113Z,100944.25
2023-03-26T05:22:54.744Z,100941.03
2023-03-26T05:25:26.864Z,100939.19
2023-03-26T05:27:55.558Z,100942.78
2023-03-26T05:30:27.076Z,100938.16
2023-03-26T05:32:59.314Z,100946.59
2023-03-26T05:35:31.991Z,100947.75
2023-03-26T05:37:59.521Z,100944.69
2023-03-26T05:40:27.290Z,100940.28
2023-03-26T05:43:00.325Z,100940.75
2023-03-26T05:46:00.622Z,100937.09
2023-03-26T05:48:31.688Z,100933.69
2023-03-26T05:50:59.857Z,100938.00
2023-03-26T05:53:29.734Z,100927.41
2023-03-26T05:56:15.688Z,100930.72
2023-03-26T05:59:01.771Z,100911.13
2023-03-26T06:01:51.067Z,100912.81
2023-03-26T06:04:41.444Z,100919.81
2023-03-26T06:07:28.501Z,100923.53
2023-03-26T06:10:09.788Z,100913.16
2023-03-26T06:12:37.330Z,100921.53
2023-03-26T06:15:06.346Z,100918.91
2023-03-26T06:17:55.804Z,100925.66
2023-03-26T06:20:59.028Z,100918.69
2023-03-26T06:23:41.050Z,100921.13
2023-03-26T06:26:27.121Z,100914.75
2023-03-26T06:29:03.211Z,100905.28
2023-03-26T06:31:52.308Z,100909.56
2023-03-26T06:34:26.257Z,100892.25
2023-03-26T06:36:54.195Z,100886.44
2023-03-26T06:39:22.749Z,100887.78
2023-03-26T06:42:13.426Z,100884.81
2023-03-26T06:44:59.538Z,100879.16
2023-03-26T06:47:36.049Z,100884.44
2023-03-26T06:50:15.168Z,100869.59
2023-03-26T06:53:01.248Z,100868.03
2023-03-26T06:55:53.410Z,100861.47
2023-03-26T06:58:39.504Z,100866.94
2023-03-26T07:01:42.498Z,100857.97
2023-03-26T07:04:39.061Z,100857.00
2023-03-26T07:07:25.124Z,100853.09
2023-03-26T07:10:11.113Z,100843.88
2023-03-26T07:12:57.068Z,100841.09
2023-03-26T07:15:59.964Z,100845.66
2023-03-26T07:19:02.667Z,100821.41
2023-03-26T07:21:35.399Z,100828.00
2023-03-26T07:24:11.504Z,100828.97
2023-03-26T07:27:40.591Z,100813.97
2023-03-26T07:30:40.579Z,100814.16
2023-03-26T07:33:35.962Z,100794.78
2023-03-26T07:36:36.342Z,100792.94
2023-03-26T07:39:44.428Z,100789.13
2023-03-26T07:42:56.161Z,100782.53
2023-03-26T07:45:45.562Z,100774.50
2023-03-26T07:48:27.769Z,100765.66
2023-03-26T07:51:12.554Z,100759.31
2023-03-26T07:54:11.331Z,100764.03
2023-03-26T07:56:58.884Z,100762.19
2023-03-26T08:00:01.628Z,100755.06
2023-03-26T08:03:13.721Z,100752.25
2023-03-26T08:06:14.946Z,100748.50
2023-03-26T08:09:32.320Z,100745.81
2023-03-26T08:12:26.864Z,100734.78
2023-03-26T08:15:08.393Z,100737.22
2023-03-26T08:17:45.220Z,100735.03
2023-03-26T08:20:38.523Z,100729.34
2023-03-26T08:23:12.964Z,100722.72
2023-03-26T08:25:54.004Z,100725.16
2023-03-26T08:28:31.855Z,100724.19
2023-03-26T08:31:03.157Z,100723.25
2023-03-26T08:33:31.394Z,100723.91
2023-03-26T08:35:58.784Z,100713.47
2023-03-26T08:38:26.313Z,100714.91
2023-03-26T08:41:12.052Z,100708.19
2023-03-26T08:44:10.341Z,100696.06
2023-03-26T08:47:08.575Z,100699.22
2023-03-26T08:49:56.889Z,100701.31
2023-03-26T08:52:39.367Z,100708.78
2023-03-26T08:55:09.627Z,100698.63
2023-03-26T08:57:57.669Z,100703.19
2023-03-26T09:01:08.064Z,100697.19
2023-03-26T09:03:53.704Z,100689.78
2023-03-26T09:06:44.010Z,100691.47
2023-03-26T09:09:34.881Z,100697.06
2023-03-26T09:12:14.311Z,100693.50
2023-03-26T09:15:16.716Z,100673.22
2023-03-26T09:18:06.192Z,100668.91
2023-03-26T09:20:49.116Z,100665.78
2023-03-26T09:24:07.620Z,100672.84
2023-03-26T09:27:00.821Z,100675.97
2023-03-26T09:30:16.770Z,100661.88
2023-03-26T09:32:56.408Z,100663.38
2023-03-26T09:35:42.489Z,100658.94
2023-03-26T09:38:38.410Z,100654.00
2023-03-26T09:41:31.502Z,100651.69
2023-03-26T09:43:58.637Z,100653.81
2023-03-26T09:46:57.321Z,100640.97
2023-03-26T09:49:39.888Z,100638.56
2023-03-26T09:52:34.679Z,100640.25
2023-03-26T09:56:04.532Z,100635.56
2023-03-26T09:59:11.073Z,100633.69
2023-03-26T10:01:51.916Z,100623.44
2023-03-26T10:04:42.253Z,100624.97
2023-03-26T10:07:30.407Z,100607.72
2023-03-26T10:10:05.972Z,100617.16
2023-03-26T10:12:48.288Z,100612.03
2023-03-26T10:15:16.317Z,100608.88
2023-03-26T10:17:49.057Z,100599.13
2023-03-26T10:20:50.776Z,100604.16
2023-03-26T10:23:48.528Z,100601.59
2023-03-26T10:26:26.356Z,100594.25
2023-03-26T10:29:11.934Z,100600.13
2023-03-26T10:31:48.534Z,100590.88
2023-03-26T10:34:29.335Z,100588.09
2023-03-26T10:37:30.035Z,100590.88
2023-03-26T10:40:15.729Z,100588.78
2023-03-26T10:43:14.010Z,100594.78
2023-03-26T10:45:50.141Z,100583.38
2023-03-26T10:48:54.699Z,100580.09
2023-03-26T10:51:36.959Z,100582.69
2023-03-26T10:54:30.853Z,100562.72
2023-03-26T10:57:00.897Z,100560.88
2023-03-26T10:59:28.639Z,100558.84
2023-03-26T11:02:16.032Z,100565.22
2023-03-26T11:04:55.906Z,100568.94
2023-03-26T11:07:28.564Z,100559.78
2023-03-26T11:10:14.192Z,100570.56
2023-03-26T11:13:09.371Z,100569.25
2023-03-26T11:15:45.596Z,100554.19
2023-03-26T11:18:19.296Z,100550.50
2023-03-26T11:21:18.633Z,100547.50
2023-03-26T11:24:06.635Z,100556.41
2023-03-26T11:27:20.864Z,100549.44
2023-03-26T11:30:06.427Z,100534.97
2023-03-26T11:32:44.588Z,100536.34
2023-03-26T11:35:41.683Z,100535.28
2023-03-26T11:38:37.693Z,100521.13
2023-03-26T11:41:16.946Z,100527.97
2023-03-26T11:44:16.104Z,100516.75
2023-03-26T11:46:47.174Z,100514.72
2023-03-26T11:49:18.889Z,100504.59
2023-03-26T11:51:49.018Z,100504.03
2023-03-26T11:54:23.602Z,100492.75
2023-03-26T11:57:04.524Z,100494.97
2023-03-26T11:59:48.892Z,100490.47
2023-03-26T12:02:29.898Z,100485.50
2023-03-26T12:05:12.586Z,100477.78
2023-03-26T12:07:53.775Z,100468.97
2023-03-26T12:10:29.272Z,100479.75
2023-03-26T12:13:03.417Z,100474.09
2023-03-26T12:15:32.381Z,100477.50
2023-03-26T12:18:21.033Z,100469.19
2023-03-26T12:20:49.708Z,100470.31
2023-03-26T12:23:39.327Z,100467.19
2023-03-26T12:26:21.536Z,100460.28
2023-03-26T12:28:51.374Z,100457.44
2023-03-26T12:31:19.806Z,100445.00
2023-03-26T12:34:16.530Z,100448.88
2023-03-26T12:36:56.335Z,100445.16
2023-03-26T12:40:09.700Z,100445.81
2023-03-26T12:44:44.238Z,100443.38
2023-03-26T12:45:28.220Z,100445.03
2023-03-26T12:48:03.729Z,100439.34
2023-03-26T12:50:55.196Z,100437.13
2023-03-26T12:53:46.022Z,100435.00
2023-03-26T12:56:38.750Z,100429.19
2023-03-26T12:59:06.120Z,100426.03
2023-03-26T13:01:36.586Z,100428.88
2023-03-26T13:04:16.025Z,100426.19
2023-03-26T13:07:01.034Z,100420.91
2023-03-26T13:09:47.223Z,100423.34
2023-03-26T13:12:29.839Z,100414.38
2023-03-26T13:15:25.195Z,100411.28
2023-03-26T13:18:07.875Z,100411.78
2023-03-26T13:20:49.573Z,100408.78
2023-03-26T13:23:43.062Z,100406.72
2023-03-26T13:26:49.962Z,100402.16
2023-03-26T13:29:40.844Z,100395.22
2023-03-26T13:32:30.629Z,100401.03
2023-03-26T13:35:24.593Z,100388.50
2023-03-26T13:38:22.177Z,100388.81
2023-03-26T13:41:26.979Z,100380.91
2023-03-26T13:44:09.964Z,100376.19
2023-03-26T13:46:43.495Z,100366.00
2023-03-26T13:49:16.858Z,100361.88
2023-03-26T13:52:10.280Z,100357.50
2023-03-26T13:54:47.965Z,100358.88
2023-03-26T13:57:39.682Z,100352.88
2023-03-26T14:00:26.954Z,100353.31
2023-03-26T14:03:04.369Z,100358.66
2023-03-26T14:05:39.699Z,100357.44
2023-03-26T14:08:27.291Z,100352.31
2023-03-26T14:11:39.047Z,100331.50
2023-03-26T14:14:36.408Z,100347.59
2023-03-26T14:17:38.730Z,100335.88
2023-03-26T14:20:15.139Z,100332.78
2023-03-26T14:22:42.595Z,100325.81
2023-03-26T14:25:25.980Z,100339.44
2023-03-26T14:28:11.339Z,100326.53
2023-03-26T14:30:57.667Z,100331.69
2023-03-26T14:33:53.967Z,100326.81
2023-03-26T14:36:21.431Z,100328.28
2023-03-26T14:39:12.960Z,100318.88
2023-03-26T14:41:51.430Z,100311.09
2023-03-26T14:45:06.771Z,100302.50
2023-03-26T14:47:42.072Z,100297.56
2023-03-26T14:50:36.043Z,100297.06
2023-03-26T14:53:19.073Z,100285.13
2023-03-26T14:56:24.733Z,100279.69
2023-03-26T14:59:22.542Z,100274.25
2023-03-26T15:02:24.382Z,100268.59
2023-03-26T15:04:54.916Z,100267.06
2023-03-26T15:07:45.318Z,100262.22
2023-03-26T15:10:31.074Z,100252.00
2023-03-26T15:13:10.954Z,100256.19
2023-03-26T15:16:02.474Z,100240.25
2023-03-26T15:18:51.590Z,100239.84
2023-03-26T15:21:52.925Z,100233.47
2023-03-26T15:24:47.656Z,100231.03
2023-03-26T15:27:29.998Z,100227.22
2023-03-26T15:30:42.423Z,100207.59
2023-03-26T15:33:36.126Z,100204.38
2023-03-26T15:36:03.677Z,100198.94
2023-03-26T15:39:00.492Z,100193.03
2023-03-26T15:42:02.607Z,100190.72
2023-03-26T15:44:53.116Z,100190.63
2023-03-26T15:47:49.371Z,100191.09
2023-03-26T15:50:27.302Z,100180.75
2023-03-26T15:53:07.874Z,100188.94
2023-03-26T15:55:40.870Z,100183.72
2023-03-26T15:58:28.202Z,100179.41
2023-03-26T16:01:19.187Z,100176.84
2023-03-26T16:04:14.817Z,100175.13
2023-03-26T16:06:55.955Z,100177.91
2023-03-26T16:10:11.168Z,100182.06
2023-03-26T16:13:16.779Z,100175.25
2023-03-26T16:15:56.209Z,100177.47
2023-03-26T16:18:33.045Z,100184.97
2023-03-26T16:21:32.137Z,100187.41
2023-03-26T16:24:02.973Z,100174.44
2023-03-26T16:27:02.000Z,100175.22
2023-03-26T16:29:30.814Z,100176.88
2023-03-26T16:32:06.161Z,100182.41
2023-03-26T16:34:42.994Z,100174.75
2023-03-26T16:37:33.766Z,100177.66
2023-03-26T16:40:22.775Z,100182.81
2023-03-26T16:43:02.368Z,100171.25
2023-03-26T16:45:43.232Z,100174.34
2023-03-26T16:48:21.185Z,100175.00
2023-03-26T16:50:49.728Z,100175.66
2023-03-26T16:53:46.509Z,100181.47
2023-03-26T16:56:13.865Z,100169.81
2023-03-26T16:58:41.140Z,100178.41
2023-03-26T17:01:22.252Z,100177.34
2023-03-26T17:04:26.136Z,100181.66
2023-03-26T17:07:09.558Z,100183.13
2023-03-26T17:09:46.746Z,100188.00
2023-03-26T17:12:24.114Z,100177.22
2023-03-26T17:15:25.709Z,100188.31
2023-03-26T17:18:17.856Z,100181.25
2023-03-26T17:21:01.434Z,100183.91
2023-03-26T17:24:15.142Z,100178.31
2023-03-26T17:27:00.520Z,100176.22
2023-03-26T17:30:04.234Z,100169.75
2023-03-26T17:32:54.580Z,100182.13
2023-03-26T17:35:45.776Z,100170.19
2023-03-26T17:38:16.357Z,100173.88
2023-03-26T17:40:58.873Z,100171.66
2023-03-26T17:43:57.109Z,100176.84
2023-03-26T17:46:45.082Z,100168.03
2023-03-26T17:49:16.540Z,100168.13
2023-03-26T17:51:52.943Z,100168.19
2023-03-26T17:54:41.676Z,100165.81
2023-03-26T17:57:15.155Z,100160.75
2023-03-26T17:59:45.241Z,100159.78
2023-03-26T18:02:18.876Z,100161.63
2023-03-26T18:04:50.078Z,100157.97
2023-03-26T18:07:39.187Z,100160.00
2023-03-26T18:10:33.428Z,100150.41
2023-03-26T18:13:25.233Z,100138.72
2023-03-26T18:16:13.484Z,100134.00
2023-03-26T18:18:58.095Z,100129.50
2023-03-26T18:21:28.663Z,100126.25
2023-03-26T18:23:59.545Z,100117.22
2023-03-26T18:26:43.446Z,100108.22
2023-03-26T18:29:27.277Z,100108.81
2023-03-26T18:32:07.615Z,100106.72
2023-03-26T18:34:37.264Z,100102.53
2023-03-26T18:37:22.753Z,100103.91
2023-03-26T18:40:12.955Z,100106.63
2023-03-26T18:42:44.404Z,100111.03
2023-03-26T18:45:38.379Z,100111.41
2023-03-26T18:48:19.409Z,100107.72
2023-03-26T18:50:52.124Z,100116.13
2023-03-26T18:53:23.012Z,100121.09
2023-03-26T18:55:51.760Z,100117.38
2023-03-26T18:58:33.121Z,100129.97
2023-03-26T19:01:04.171Z,100124.06
2023-03-26T19:03:35.757Z,100123.91
2023-03-26T19:06:08.477Z,100111.13
2023-03-26T19:08:39.122Z,100099.31
2023-03-26T19:11:09.044Z,100103.00
2023-03-26T19:13:41.633Z,100099.97
2023-03-26T19:16:23.056Z,100094.78
2023-03-26T19:18:51.177Z,100091.09
2023-03-26T19:21:20.405Z,100090.69
2023-03-26T19:23:48.200Z,100090.69
2023-03-26T19:26:16.273Z,100091.09
2023-03-26T19:28:51.688Z,100094.78
2023-03-26T19:31:34.271Z,100092.44
2023-03-26T19:34:41.260Z,100085.13
2023-03-26T19:37:22.244Z,100073.03
2023-03-26T19:39:49.611Z,100076.66
2023-03-26T19:42:26.541Z,100069.94
2023-03-26T19:44:55.191Z,100058.78
2023-03-26T19:47:52.079Z,100053.47
2023-03-26T19:50:28.653Z,100051.97
2023-03-26T19:53:24.477Z,100049.16
2023-03-26T19:55:59.397Z,100052.59
2023-03-26T19:58:27.663Z,100059.34
2023-03-26T20:00:56.666Z,100051.47
2023-03-26T20:03:41.901Z,100051.47
2023-03-26T20:06:15.165Z,100046.91
2023-03-26T20:08:43.046Z,100052.22
2023-03-26T20:11:14.809Z,100046.59
2023-03-26T20:13:42.122Z,100030.78
2023-03-26T20:16:27.779Z,100036.94
2023-03-26T20:19:02.546Z,100034.13
2023-03-26T20:21:32.596Z,100030.16
2023-03-26T20:23:59.962Z,100024.88
2023-03-26T20:26:27.513Z,100028.66
2023-03-26T20:28:54.904Z,100021.69
2023-03-26T20:31:28.779Z,100011.16
2023-03-26T20:33:57.818Z,100009.53
2023-03-26T20:36:33.670Z,100011.69
2023-03-26T20:39:06.279Z,100012.75
2023-03-26T20:41:36.085Z,100015.41
2023-03-26T20:44:03.972Z,100009.09
2023-03-26T20:46:33.475Z,100000.78
2023-03-26T20:49:01.043Z,99995.47
2023-03-26T20:51:29.077Z,99985.47
2023-03-26T20:53:56.640Z,99990.81
2023-03-26T20:56:24.066Z,99999.19
2023-03-26T20:59:09.980Z,99988.59
2023-03-26T21:01:38.857Z,99995.97
2023-03-26T21:04:07.565Z,99998.00
2023-03-26T21:06:35.136Z,99991.91
2023-03-26T21:09:02.662Z,99984.38
2023-03-26T21:11:46.126Z,99987.44
2023-03-26T21:14:23.327Z,99974.81
2023-03-26T21:16:51.931Z,99976.06
2023-03-26T21:19:20.516Z,99975.25
2023-03-26T21:22:05.155Z,99978.13
2023-03-26T21:24:45.303Z,99972.00
2023-03-26T21:27:26.468Z,99965.66
2023-03-26T21:29:55.605Z,99967.94
2023-03-26T21:32:23.762Z,99966.28
2023-03-26T21:34:58.525Z,99966.94
2023-03-26T21:37:27.330Z,99965.56
2023-03-26T21:39:54.694Z,99958.41
2023-03-26T21:42:22.398Z,99950.69
2023-03-26T21:44:50.031Z,99940.69
2023-03-26T21:47:17.951Z,99938.44
2023-03-26T21:49:45.794Z,99939.28
2023-03-26T21:52:15.280Z,99944.78
2023-03-26T21:54:43.483Z,99948.22
2023-03-26T21:57:31.416Z,99948.03
2023-03-26T22:00:18.846Z,99944.97
2023-03-26T22:03:11.577Z,99952.50
2023-03-26T22:05:43.345Z,99958.63
2023-03-26T22:08:30.571Z,99964.91
2023-03-26T22:10:58.157Z,99942.13
2023-03-26T22:13:25.868Z,99942.13
2023-03-26T22:15:53.860Z,99934.38
2023-03-26T22:18:21.962Z,99926.00
2023-03-26T22:20:49.923Z,99914.78
2023-03-26T22:23:18.610Z,99922.94
2023-03-26T22:25:46.569Z,99922.34
2023-03-26T22:28:14.156Z,99928.63
2023-03-26T22:30:42.230Z,99929.22
2023-03-26T22:33:12.898Z,99919.66
2023-03-26T22:35:43.094Z,99929.22
2023-03-26T22:38:11.982Z,99941.84
2023-03-26T22:40:39.649Z,99940.88
2023-03-26T22:43:09.609Z,99944.78
2023-03-26T22:45:38.038Z,99944.16
2023-03-26T22:48:05.618Z,99946.41
2023-03-26T22:50:33.402Z,99952.91
2023-03-26T22:53:00.876Z,99955.38
2023-03-26T22:55:29.720Z,99965.13
2023-03-26T22:57:57.936Z,99958.22
2023-03-26T23:00:26.780Z,99971.44
2023-03-26T23:03:00.790Z,99959.88
2023-03-26T23:05:28.876Z,99958.44
2023-03-26T23:07:57.388Z,99948.84
2023-03-26T23:10:24.820Z,99942.34
2023-03-26T23:12:53.078Z,99953.75
2023-03-26T23:15:20.916Z,99963.72
2023-03-26T23:17:54.505Z,99967.41
2023-03-26T23:20:22.696Z,99973.69
2023-03-26T23:22:50.155Z,99964.53
2023-03-26T23:25:17.650Z,99967.59
2023-03-26T23:27:45.057Z,99959.44
2023-03-26T23:30:13.656Z,99955.78
2023-03-26T23:32:41.803Z,99957.41
2023-03-26T23:35:09.786Z,99962.31
2023-03-26T23:37:37.201Z,99957.00
2023-03-26T23:40:10.361Z,99962.06
2023-03-26T23:42:39.517Z,99958.63
2023-03-26T23:45:08.761Z,99957.38
2023-03-26T23:47:36.231Z,99974.47
2023-03-26T23:50:05.390Z,99983.41
2023-03-26T23:52:32.914Z,99980.53
2023-03-26T23:55:00.249Z,99982.19
2023-03-26T23:57:27.756Z,99980.94
2023-03-26T23:59:55.947Z,99982.19
